Time;durP1;ratioP1;P1;durP2;ratioP2;P2;SDS_P1;SDS_P2;PMS_P1;PMS_P2;Temp;Humidity;BMP_temperature;BMP_pressure;BME280_temperature;BME280_humidity;BME280_pressure;Samples;Min_cycle;Max_cycle;Signal;HPM_P1;HPM_P2
2022/11/15 00:01:38;;;;;;;41.53;23.58;;;;;;;29.80;68.64;100886.72;5088568;27;70137;-36
2022/11/15 00:04:28;;;;;;;46.83;24.77;;;;;;;29.83;68.56;100896.28;5083917;27;67117;-35
2022/11/15 00:07:17;;;;;;;55.47;30.30;;;;;;;29.91;68.34;100908.75;5090074;27;69144;-36
2022/11/15 00:10:26;;;;;;;47.83;33.35;;;;;;;29.83;69.36;100902.53;5086067;27;66557;-35
2022/11/15 00:13:16;;;;;;;49.05;32.20;;;;;;;29.98;70.07;100914.97;5081527;27;69737;-35
2022/11/15 00:16:06;;;;;;;45.05;29.33;;;;;;;30.01;69.91;100922.66;5086668;27;65701;-33
2022/11/15 00:18:55;;;;;;;47.38;28.52;;;;;;;30.04;69.99;100919.53;5079712;27;69626;-33
2022/11/15 00:21:44;;;;;;;43.95;27.83;;;;;;;30.00;70.30;100924.50;5080526;27;66143;-34
2022/11/15 00:24:34;;;;;;;35.03;24.40;;;;;;;29.96;70.38;100906.25;5082238;27;70275;-34
2022/11/15 00:27:23;;;;;;;38.88;24.10;;;;;;;30.13;67.22;100933.66;5086128;27;65367;-34
2022/11/15 00:30:13;;;;;;;29.45;21.13;;;;;;;30.14;66.84;100946.94;5085504;27;70876;-33
2022/11/15 00:33:06;;;;;;;27.77;20.08;;;;;;;30.20;66.78;100951.53;5082945;27;65478;-32
2022/11/15 00:36:04;;;;;;;30.95;20.45;;;;;;;30.14;66.29;100940.72;5087477;27;70190;-33
2022/11/15 00:38:53;;;;;;;23.70;19.45;;;;;;;30.21;66.59;100946.94;5083130;27;65783;-33
2022/11/15 00:41:42;;;;;;;25.58;20.23;;;;;;;30.19;66.55;100949.84;5081888;27;69571;-33
2022/11/15 00:44:31;;;;;;;23.92;18.73;;;;;;;30.31;66.09;100968.16;5083444;27;66560;-34
2022/11/15 00:47:21;;;;;;;26.23;19.42;;;;;;;30.32;66.28;100970.66;5090614;27;70098;-33
2022/11/15 00:50:10;;;;;;;27.58;18.50;;;;;;;30.35;65.87;100975.63;5083321;27;66683;-33
2022/11/15 00:53:02;;;;;;;22.73;18.70;;;;;;;30.32;66.46;100962.53;5088032;27;69924;-33
2022/11/15 00:55:51;;;;;;;24.55;18.05;;;;;;;30.42;65.84;100983.72;5081543;27;66163;-33
2022/11/15 00:58:41;;;;;;;20.10;17.95;;;;;;;30.43;66.27;100977.28;5083101;27;69931;-33
2022/11/15 01:01:31;;;;;;;21.38;17.02;;;;;;;30.46;66.48;100991.19;5085223;27;66914;-33
2022/11/15 01:04:20;;;;;;;28.45;18.33;;;;;;;30.46;66.16;100982.25;5089260;27;70512;-32
2022/11/15 01:07:09;;;;;;;22.52;17.15;;;;;;;30.50;66.18;100991.59;5083848;27;66190;-33
2022/11/15 01:09:59;;;;;;;20.77;18.10;;;;;;;30.17;65.96;100938.44;5081995;27;69230;-34
2022/11/15 01:12:49;;;;;;;27.25;20.63;;;;;;;30.57;65.95;100994.28;5082968;27;66274;-35
2022/11/15 01:15:41;;;;;;;24.58;20.98;;;;;;;30.60;66.03;101005.50;5084203;27;69612;-33
2022/11/15 01:18:31;;;;;;;25.77;19.35;;;;;;;30.60;66.68;101004.69;5086388;27;66741;-37
2022/11/15 01:21:20;;;;;;;24.25;19.40;;;;;;;30.63;66.05;101015.91;5091590;27;70560;-33
2022/11/15 01:24:13;;;;;;;21.92;19.63;;;;;;;30.43;66.12;100967.28;5083764;27;65369;-33
2022/11/15 01:27:02;;;;;;;22.20;19.77;;;;;;;30.59;65.88;100993.03;5083656;27;69365;-34
2022/11/15 01:29:52;;;;;;;23.05;20.48;;;;;;;30.69;65.91;101006.91;5081823;27;65698;-32
2022/11/15 01:32:41;;;;;;;22.17;19.83;;;;;;;30.71;66.14;101007.53;5082868;27;69780;-32
2022/11/15 01:35:30;;;;;;;22.52;19.10;;;;;;;30.72;66.27;101008.34;5094142;27;66320;-32
2022/11/15 01:38:20;;;;;;;27.42;20.60;;;;;;;30.75;66.28;101004.38;5087447;27;70232;-33
2022/11/15 01:41:22;;;;;;;23.92;20.13;;;;;;;30.67;65.77;100995.50;5080763;27;66329;-33
2022/11/15 01:44:49;;;;;;;23.55;19.98;;;;;;;30.69;66.12;101009.63;5084264;27;69279;-33
2022/11/15 01:47:43;;;;;;;23.35;18.80;;;;;;;29.59;66.31;100809.41;5092785;27;66417;-33
2022/11/15 01:50:33;;;;;;;22.70;19.63;;;;;;;30.36;66.01;100917.75;5089653;27;70109;-33
2022/11/15 01:53:25;;;;;;;23.25;19.02;;;;;;;30.86;66.34;101003.72;5088379;27;65672;-33
2022/11/15 01:56:22;;;;;;;20.70;18.65;;;;;;;30.84;66.54;101005.81;5084791;27;69548;-34
2022/11/15 01:59:13;;;;;;;21.38;19.20;;;;;;;30.82;66.71;100991.69;5083758;27;66464;-34
2022/11/15 02:02:02;;;;;;;21.33;19.10;;;;;;;30.89;66.88;100992.47;5084381;27;69744;-33
2022/11/15 02:04:51;;;;;;;20.88;18.70;;;;;;;30.58;66.90;100942.63;5085330;27;66038;-32
2022/11/15 02:07:41;;;;;;;22.33;19.92;;;;;;;30.92;67.17;100992.03;5093117;27;70244;-33
2022/11/15 02:10:30;;;;;;;21.60;18.98;;;;;;;30.84;66.96;100976.88;5089212;27;66166;-32
2022/11/15 02:13:19;;;;;;;21.90;19.60;;;;;;;30.91;67.50;100979.53;5088837;27;70142;-33
2022/11/15 02:16:31;;;;;;;20.83;18.63;;;;;;;30.86;67.92;100982.06;5083689;27;65841;-33
2022/11/15 02:19:40;;;;;;;19.27;17.38;;;;;;;30.89;68.08;100995.16;5091350;27;70084;-33
2022/11/15 02:22:52;;;;;;;20.35;18.23;;;;;;;30.92;68.63;100997.44;5087325;27;65625;-32
2022/11/15 02:25:56;;;;;;;20.88;18.67;;;;;;;30.98;68.62;100998.44;5091241;27;70132;-33
2022/11/15 02:29:08;;;;;;;17.70;15.98;;;;;;;30.99;68.89;100995.53;5090510;27;66069;-32
2022/11/15 02:32:45;;;;;;;20.47;18.50;;;;;;;30.92;68.57;100997.44;5084618;27;69926;-33
2022/11/15 02:35:45;;;;;;;20.08;18.05;;;;;;;31.09;67.70;100993.19;5084206;27;66933;-34
2022/11/15 02:38:55;;;;;;;18.48;16.65;;;;;;;31.07;68.30;101000.69;5081711;27;69796;-32
2022/11/15 02:43:56;;;;;;;18.58;16.80;;;;;;;31.06;68.24;100992.75;5091505;27;66692;-33
2022/11/15 02:45:27;;;;;;;22.30;15.37;;;;;;;31.11;67.90;100980.22;5090475;27;69157;-33
2022/11/15 02:48:18;;;;;;;16.83;15.27;;;;;;;30.97;67.38;100948.03;5089798;27;65564;-32
2022/11/15 02:51:08;;;;;;;16.88;15.00;;;;;;;31.22;67.15;100986.00;5093926;27;69617;-33
2022/11/15 02:53:57;;;;;;;17.10;15.55;;;;;;;31.25;66.85;100988.25;5087389;27;65448;-33
2022/11/15 02:56:47;;;;;;;16.80;15.40;;;;;;;31.19;66.98;100964.75;5077026;27;70187;-32
2022/11/15 02:59:51;;;;;;;17.70;15.30;;;;;;;31.08;67.58;100958.97;5085692;27;66619;-32
2022/11/15 03:02:43;;;;;;;18.20;16.13;;;;;;;31.29;67.28;100971.34;5090896;27;69885;-33
2022/11/15 03:05:37;;;;;;;;;;;;;;;31.01;68.38;100973.63;5087373;27;66565;-33
2022/11/15 03:08:38;;;;;;;16.08;14.80;;;;;;;31.27;67.93;100986.16;5080668;27;70791;-33
2022/11/15 03:11:30;;;;;;;16.42;15.02;;;;;;;31.29;67.12;100970.53;5086409;27;66247;-34
2022/11/15 03:14:31;;;;;;;15.60;14.18;;;;;;;31.31;67.31;100973.81;5082414;27;70530;-32
2022/11/15 03:17:36;;;;;;;16.45;14.35;;;;;;;31.29;67.04;100959.69;5086385;27;66836;-34
2022/11/15 03:20:28;;;;;;;16.05;14.57;;;;;;;31.42;66.45;100969.59;5084890;27;69860;-33
2022/11/15 03:23:18;;;;;;;16.25;14.60;;;;;;;31.36;66.85;100955.03;5083462;27;65862;-34
2022/11/15 03:26:14;;;;;;;18.15;14.93;;;;;;;30.97;66.83;100886.56;5081215;27;70407;-33
2022/11/15 03:29:14;;;;;;;16.73;15.07;;;;;;;31.39;66.60;100943.75;5086677;27;66776;-33
2022/11/15 03:32:14;;;;;;;15.18;13.73;;;;;;;31.48;66.44;100947.88;5085333;27;70406;-33
2022/11/15 03:35:19;;;;;;;16.25;14.05;;;;;;;31.40;66.76;100918.31;5088222;27;65791;-33
2022/11/15 03:38:23;;;;;;;15.00;13.60;;;;;;;31.46;66.40;100927.44;5082616;27;70588;-33
2022/11/15 03:41:44;;;;;;;14.05;12.98;;;;;;;31.04;66.24;100851.31;5095079;27;66400;-33
2022/11/15 03:44:45;;;;;;;14.20;12.80;;;;;;;31.58;66.17;100931.88;5086220;27;70132;-33
2022/11/15 03:47:58;;;;;;;14.15;12.95;;;;;;;31.57;66.26;100922.09;5084093;27;65734;-34
2022/11/15 03:50:47;;;;;;;;;;;;;;;31.29;66.98;100916.31;5088643;27;70223;-33
2022/11/15 03:53:37;;;;;;;13.57;12.25;;;;;;;31.59;65.73;100911.88;5083788;27;65693;-34
2022/11/15 03:56:26;;;;;;;15.13;12.18;;;;;;;31.64;65.67;100902.22;5084028;27;70322;-33
2022/11/15 03:59:15;;;;;;;13.57;12.30;;;;;;;31.65;65.05;100903.88;5081693;27;66397;-32
2022/11/15 04:02:05;;;;;;;13.55;12.32;;;;;;;31.58;65.17;100877.66;5090590;27;69714;-33
2022/11/15 04:04:55;;;;;;;12.15;11.18;;;;;;;31.67;65.27;100888.22;5084110;27;66098;-35
2022/11/15 04:07:44;;;;;;;11.85;10.93;;;;;;;31.61;65.37;100870.97;5084005;27;69415;-33
2022/11/15 04:10:34;;;;;;;11.77;10.85;;;;;;;31.68;65.00;100887.16;5085234;27;65745;-35
2022/11/15 04:13:24;;;;;;;12.60;11.50;;;;;;;31.64;64.77;100872.41;5080681;27;69720;-34
2022/11/15 04:16:13;;;;;;;12.27;11.15;;;;;;;31.69;64.91;100867.13;5081400;27;65457;-33
2022/11/15 04:25:17;;;;;;;12.80;11.75;;;;;;;31.74;64.86;100865.41;5086031;27;70251;-33
2022/11/15 04:28:11;;;;;;;11.88;10.75;;;;;;;31.76;64.78;100862.44;5087245;27;66570;-33
2022/11/15 04:31:01;;;;;;;11.13;10.43;;;;;;;31.77;64.76;100858.69;5082197;27;69356;-33
2022/11/15 04:33:51;;;;;;;11.23;10.27;;;;;;;31.72;64.79;100840.38;5086896;27;66308;-33
2022/11/15 04:39:47;;;;;;;10.90;10.00;;;;;;;31.81;64.77;100832.75;5088992;27;67367;-33
2022/11/15 04:42:37;;;;;;;10.93;9.98;;;;;;;31.78;64.60;100825.06;5083567;27;69232;-33
2022/11/15 04:45:26;;;;;;;12.38;10.50;;;;;;;31.86;65.09;100830.19;5081953;27;65777;-34
2022/11/15 04:48:15;;;;;;;9.90;9.20;;;;;;;31.88;64.90;100833.50;5079663;27;70402;-35
2022/11/15 04:51:05;;;;;;;10.50;9.63;;;;;;;31.80;64.74;100818.38;5086237;27;64804;-34
2022/11/15 04:53:55;;;;;;;10.50;9.60;;;;;;;31.88;64.71;100830.81;5084654;27;70139;-34
2022/11/15 04:56:44;;;;;;;10.23;9.45;;;;;;;31.81;64.76;100813.78;5087628;27;66539;-33
2022/11/15 04:59:33;;;;;;;10.35;9.50;;;;;;;31.90;65.10;100817.84;5091460;27;70252;-35
2022/11/15 05:02:23;;;;;;;10.80;9.80;;;;;;;31.85;64.66;100801.41;5089738;27;66773;-33
2022/11/15 05:05:13;;;;;;;11.02;9.95;;;;;;;31.72;64.76;100769.88;5087107;27;69960;-33
2022/11/15 05:08:02;;;;;;;10.43;9.55;;;;;;;31.91;64.72;100784.25;5090318;27;65691;-33
2022/11/15 05:10:51;;;;;;;10.32;9.18;;;;;;;31.96;64.76;100787.09;5088350;27;69987;-34
2022/11/15 05:13:41;;;;;;;9.85;9.02;;;;;;;31.98;64.40;100782.28;5086281;27;66556;-33
2022/11/15 05:16:31;;;;;;;12.13;9.57;;;;;;;31.82;64.59;100747.63;5082817;27;69685;-34
2022/11/15 05:19:20;;;;;;;9.68;8.88;;;;;;;32.01;64.60;100770.97;5093460;27;66631;-34
2022/11/15 05:22:09;;;;;;;9.85;9.15;;;;;;;31.99;64.57;100759.50;5095241;27;70960;-34
2022/11/15 05:24:59;;;;;;;10.02;9.02;;;;;;;31.90;64.45;100728.31;5088823;27;66444;-33
2022/11/15 05:27:48;;;;;;;13.80;9.65;;;;;;;32.00;64.42;100747.59;5068826;27;70453;-34
2022/11/15 05:30:38;;;;;;;9.82;9.00;;;;;;;32.08;64.55;100740.19;5093159;27;65515;-34
2022/11/15 05:33:28;;;;;;;9.38;8.65;;;;;;;32.09;64.75;100739.13;5085098;27;70215;-37
2022/11/15 05:36:35;;;;;;;9.10;8.43;;;;;;;32.00;64.33;100719.63;5089277;27;65609;-33
2022/11/15 05:39:25;;;;;;;10.40;9.05;;;;;;;32.13;64.46;100733.00;5082512;27;69706;-35
2022/11/15 05:42:16;;;;;;;9.40;8.60;;;;;;;32.01;64.46;100707.72;5096785;27;66079;-34
2022/11/15 05:45:08;;;;;;;10.85;8.75;;;;;;;31.37;64.27;100598.91;5088452;27;70315;-34
2022/11/15 05:48:00;;;;;;;9.55;8.82;;;;;;;31.72;64.40;100644.28;5089588;27;66416;-34
2022/11/15 05:50:49;;;;;;;9.63;8.63;;;;;;;32.17;64.38;100717.09;5091951;27;69881;-33
2022/11/15 05:53:39;;;;;;;9.27;8.50;;;;;;;32.22;64.27;100711.78;5087722;27;66456;-33
2022/11/15 05:56:30;;;;;;;9.32;8.55;;;;;;;32.11;64.47;100683.56;5085392;27;69311;-33
2022/11/15 05:59:20;;;;;;;9.13;8.27;;;;;;;32.21;64.38;100696.56;5085593;27;65997;-34
2022/11/15 06:02:11;;;;;;;9.43;8.63;;;;;;;32.22;64.30;100698.22;5089202;27;69800;-36
2022/11/15 06:05:00;;;;;;;8.43;7.70;;;;;;;32.28;64.25;100702.72;5084435;27;65433;-38
2022/11/15 06:07:50;;;;;;;8.65;7.90;;;;;;;32.28;64.42;100703.53;5085625;27;69361;-32
2022/11/15 06:10:39;;;;;;;8.52;7.88;;;;;;;32.25;64.61;100697.75;5084825;27;66516;-32
2022/11/15 06:13:28;;;;;;;9.20;8.32;;;;;;;32.30;64.42;100705.19;5086231;27;69367;-34
2022/11/15 06:16:18;;;;;;;8.00;7.28;;;;;;;32.24;64.39;100688.78;5091677;27;66221;-33
2022/11/15 06:19:08;;;;;;;8.98;7.90;;;;;;;32.28;64.41;100687.25;5082235;27;70424;-33
2022/11/15 06:21:57;;;;;;;8.45;7.85;;;;;;;32.33;64.62;100680.28;5088359;27;66392;-34
2022/11/15 06:24:47;;;;;;;8.65;7.90;;;;;;;32.37;64.82;100668.72;5085368;27;70182;-34
2022/11/15 06:27:36;;;;;;;7.57;7.07;;;;;;;32.18;64.51;100623.75;5084731;27;66335;-32
2022/11/15 06:30:27;;;;;;;7.95;7.45;;;;;;;32.41;64.67;100653.63;5084722;27;70240;-34
2022/11/15 06:33:16;;;;;;;8.60;7.65;;;;;;;32.42;64.74;100649.84;5090993;27;65463;-33
2022/11/15 06:36:08;;;;;;;7.93;7.28;;;;;;;31.60;64.35;100512.22;5083396;27;70376;-32
2022/11/15 06:39:05;;;;;;;8.43;7.70;;;;;;;32.46;64.55;100650.25;5089559;27;66028;-33
2022/11/15 06:41:54;;;;;;;8.15;7.40;;;;;;;32.33;64.42;100629.53;5084282;27;70265;-33
2022/11/15 06:44:43;;;;;;;10.07;7.28;;;;;;;32.40;64.34;100641.13;5088633;27;66548;-32
2022/11/15 06:47:33;;;;;;;8.02;7.28;;;;;;;32.47;64.64;100663.56;5085633;27;68825;-33
2022/11/15 06:50:22;;;;;;;9.75;6.80;;;;;;;32.50;64.38;100684.00;5082778;27;65457;-33
2022/11/15 06:53:12;;;;;;;12.90;7.03;;;;;;;32.42;64.66;100682.41;5085093;27;70291;-33
2022/11/15 06:56:05;;;;;;;7.78;7.07;;;;;;;32.23;64.46;100634.72;5087867;27;66159;-34
2022/11/15 06:58:56;;;;;;;7.72;7.07;;;;;;;32.47;64.70;100663.56;5085310;27;70388;-32
2022/11/15 07:01:45;;;;;;;8.63;6.38;;;;;;;32.47;64.63;100671.72;5083784;27;66788;-33
2022/11/15 07:04:35;;;;;;;6.75;6.15;;;;;;;32.48;64.35;100667.09;5090410;27;71604;-34
2022/11/15 07:07:25;;;;;;;6.25;5.65;;;;;;;32.49;64.80;100672.31;5091929;27;66764;-33
2022/11/15 07:10:15;;;;;;;12.20;5.72;;;;;;;32.48;64.83;100676.09;5085503;27;69833;-33
2022/11/15 07:13:05;;;;;;;9.48;5.55;;;;;;;32.44;64.95;100666.72;5084643;27;66343;-33
2022/11/15 07:15:55;;;;;;;6.95;5.90;;;;;;;32.46;64.97;100667.34;5085760;27;69968;-34
2022/11/15 07:18:44;;;;;;;10.68;5.63;;;;;;;32.39;65.16;100650.31;5081608;27;66356;-34
2022/11/15 07:21:34;;;;;;;6.43;5.25;;;;;;;32.19;65.01;100606.41;5088705;27;69960;-34
2022/11/15 07:24:23;;;;;;;6.20;5.70;;;;;;;32.46;65.53;100640.19;5083746;27;66639;-35
2022/11/15 07:27:13;;;;;;;5.95;4.82;;;;;;;32.47;65.14;100620.13;5066891;27;70359;-37
2022/11/15 07:30:03;;;;;;;6.25;5.00;;;;;;;32.32;65.25;100584.47;5089271;27;64922;-33
2022/11/15 07:32:59;;;;;;;7.68;4.07;;;;;;;32.47;65.44;100605.72;5085667;27;70746;-35
2022/11/15 07:35:50;;;;;;;4.75;4.45;;;;;;;32.35;65.35;100589.41;5085086;27;66513;-34
2022/11/15 07:38:39;;;;;;;5.90;4.50;;;;;;;32.46;65.39;100607.63;5081866;27;70532;-34
2022/11/15 07:41:30;;;;;;;4.30;3.90;;;;;;;32.42;65.71;100595.53;5081665;27;66193;-33
2022/11/15 07:44:20;;;;;;;4.15;3.80;;;;;;;32.41;65.16;100593.91;5087225;27;70044;-33
2022/11/15 07:47:09;;;;;;;4.25;3.83;;;;;;;32.47;65.26;100598.41;5081660;27;66393;-33
2022/11/15 07:49:58;;;;;;;4.45;4.05;;;;;;;32.48;65.28;100599.22;5078747;27;69687;-33
2022/11/15 07:52:53;;;;;;;5.47;4.03;;;;;;;32.46;65.08;100594.03;5082974;27;66659;-34
2022/11/15 07:55:42;;;;;;;4.60;4.15;;;;;;;32.48;65.10;100599.22;5081856;27;70571;-34
2022/11/15 07:58:32;;;;;;;4.95;3.88;;;;;;;32.40;65.25;100603.13;5066218;27;65335;-34
2022/11/15 08:01:21;;;;;;;4.00;3.60;;;;;;;32.47;65.35;100616.59;5083565;27;70026;-37
2022/11/15 08:04:12;;;;;;;3.90;3.60;;;;;;;32.51;65.27;100627.78;5090523;27;66017;-36
2022/11/15 08:07:01;;;;;;;3.50;3.22;;;;;;;32.38;65.08;100616.09;5090481;27;70895;-34
2022/11/15 08:09:51;;;;;;;4.55;3.70;;;;;;;32.44;65.24;100626.00;5083134;27;66093;-33
2022/11/15 08:12:40;;;;;;;4.35;3.67;;;;;;;32.44;64.99;100633.31;5083696;27;69929;-33
2022/11/15 08:15:30;;;;;;;4.28;3.45;;;;;;;32.49;64.94;100642.44;5085776;27;65583;-32
2022/11/15 08:18:19;;;;;;;4.85;3.50;;;;;;;32.39;64.84;100617.72;5089502;27;69721;-32
2022/11/15 08:21:10;;;;;;;4.20;3.42;;;;;;;32.49;65.06;100639.72;5088921;27;67057;-33
2022/11/15 08:24:06;;;;;;;3.50;3.20;;;;;;;32.53;65.22;100639.25;5086507;27;69703;-34
2022/11/15 08:26:55;;;;;;;4.10;3.75;;;;;;;32.51;65.08;100644.06;5088990;27;66495;-34
2022/11/15 08:29:45;;;;;;;3.35;3.05;;;;;;;32.44;65.13;100634.13;5081792;27;69263;-33
2022/11/15 08:32:34;;;;;;;3.65;3.30;;;;;;;32.43;64.88;100628.94;5086839;27;65825;-33
2022/11/15 08:35:24;;;;;;;5.38;3.30;;;;;;;32.46;65.07;100634.78;5083688;27;70014;-37
2022/11/15 08:38:15;;;;;;;3.45;3.15;;;;;;;32.48;64.87;100637.22;5077952;27;66193;-34
2022/11/15 08:41:06;;;;;;;3.53;3.22;;;;;;;32.50;64.93;100640.53;5085451;27;69665;-38
2022/11/15 08:43:55;;;;;;;3.38;3.17;;;;;;;32.49;64.74;100645.16;5090679;27;66622;-33
2022/11/15 08:46:47;;;;;;;3.38;3.00;;;;;;;32.49;64.87;100647.88;5087464;27;70048;-34
2022/11/15 08:49:36;;;;;;;3.90;3.05;;;;;;;32.33;65.03;100628.72;5085269;27;65704;-34
2022/11/15 08:52:26;;;;;;;3.78;2.95;;;;;;;32.35;64.98;100623.91;5082388;27;69798;-34
2022/11/15 08:55:15;;;;;;;4.47;3.08;;;;;;;32.45;65.14;100649.34;5086536;27;66284;-34
2022/11/15 08:58:05;;;;;;;3.05;2.85;;;;;;;32.44;64.86;100636.03;5085809;27;70562;-33
2022/11/15 09:00:55;;;;;;;4.28;3.10;;;;;;;32.40;65.07;100630.25;5074950;27;66223;-35
2022/11/15 09:03:45;;;;;;;3.47;3.17;;;;;;;32.45;64.99;100638.50;5079304;27;70074;-37
2022/11/15 09:06:34;;;;;;;8.32;3.28;;;;;;;32.31;65.22;100628.94;5086536;27;66571;-34
2022/11/15 09:09:29;;;;;;;13.43;4.40;;;;;;;32.19;65.91;100633.56;5080744;27;69682;-33
2022/11/15 09:12:19;;;;;;;8.07;4.65;;;;;;;32.03;66.11;100614.19;5078456;27;65388;-34
2022/11/15 09:15:09;;;;;;;29.15;5.75;;;;;;;32.11;66.67;100637.44;5083663;27;69344;-35
2022/11/15 09:18:01;;;;;;;26.73;5.32;;;;;;;32.17;67.00;100651.94;5080355;27;66526;-34
2022/11/15 09:20:50;;;;;;;21.02;5.05;;;;;;;31.89;67.00;100615.44;5077933;27;70143;-38
2022/11/15 09:23:40;;;;;;;16.95;5.13;;;;;;;32.10;67.03;100651.25;5088851;27;66406;-33
2022/11/15 09:26:29;;;;;;;13.35;5.20;;;;;;;32.10;66.92;100653.97;5079844;27;69491;-33
2022/11/15 09:29:19;;;;;;;5.32;4.05;;;;;;;32.03;67.36;100651.34;5086886;27;65577;-33
2022/11/15 09:32:08;;;;;;;17.98;5.53;;;;;;;31.89;67.34;100631.72;5084066;27;70325;-33
2022/11/15 09:34:58;;;;;;;10.82;4.55;;;;;;;32.01;67.41;100651.59;5091670;27;66672;-34
2022/11/15 09:37:47;;;;;;;14.27;4.90;;;;;;;31.96;67.96;100651.47;5079648;27;70370;-34
2022/11/15 09:40:42;;;;;;;7.88;4.72;;;;;;;31.99;67.99;100651.00;5083741;27;66328;-34
2022/11/15 09:43:47;;;;;;;10.77;5.53;;;;;;;31.82;68.37;100639.97;5080939;27;70519;-33
2022/11/15 09:46:44;;;;;;;10.07;5.68;;;;;;;31.57;68.52;100591.34;5088468;27;65762;-33
2022/11/15 09:49:35;;;;;;;16.58;5.35;;;;;;;31.98;68.32;100660.19;5086465;27;69437;-35
2022/11/15 09:52:25;;;;;;;6.57;4.88;;;;;;;31.93;68.90;100651.09;5084973;27;65328;-33
2022/11/15 09:54:57;;;;;;;7.93;5.63;;;;;;;31.91;69.05;100659.47;5087160;27;69507;-34
2022/11/15 09:57:38;;;;;;;10.57;5.57;;;;;;;32.01;68.93;100659.75;5086212;27;66514;-34
2022/11/15 10:00:20;;;;;;;10.68;4.85;;;;;;;31.97;68.89;100663.13;5082333;27;70521;-36
2022/11/15 10:03:15;;;;;;;15.18;6.13;;;;;;;31.97;69.00;100674.81;5092381;27;66367;-33
2022/11/15 10:05:48;;;;;;;10.32;5.72;;;;;;;31.56;69.01;100597.78;5085446;27;69458;-34
2022/11/15 10:08:42;;;;;;;7.15;5.10;;;;;;;31.94;69.41;100664.44;5087056;27;65299;-35
2022/11/15 10:11:35;;;;;;;8.38;5.55;;;;;;;31.80;69.62;100662.94;5086390;27;69035;-33
2022/11/15 10:14:30;;;;;;;8.10;5.43;;;;;;;31.80;70.12;100662.94;5088916;27;66278;-36
2022/11/15 10:17:21;;;;;;;7.28;5.28;;;;;;;31.31;69.96;100588.97;5087504;27;70538;-36
2022/11/15 10:20:10;;;;;;;6.70;5.68;;;;;;;31.85;69.94;100664.97;5086558;27;66549;-35
2022/11/15 10:22:49;;;;;;;12.15;5.85;;;;;;;31.82;69.86;100677.13;5088514;27;69911;-32
2022/11/15 10:25:24;;;;;;;10.25;5.53;;;;;;;31.82;70.23;100680.66;5091354;27;65652;-32
2022/11/15 10:28:06;;;;;;;15.45;5.88;;;;;;;31.25;70.29;100606.97;5086735;27;70172;-35
2022/11/15 10:30:46;;;;;;;16.58;6.75;;;;;;;31.23;70.53;100609.09;5087760;27;65348;-35
2022/11/15 10:33:36;;;;;;;10.93;5.65;;;;;;;31.74;70.37;100707.28;5091463;27;70614;-33
2022/11/15 10:36:25;;;;;;;16.77;6.60;;;;;;;31.75;70.53;100717.06;5082772;27;66297;-36
2022/11/15 10:38:57;;;;;;;10.18;5.97;;;;;;;31.69;72.10;100701.72;5088124;27;70276;-36
2022/11/15 10:41:35;;;;;;;16.92;6.75;;;;;;;31.28;71.43;100643.63;5088134;27;65919;-34
2022/11/15 10:44:18;;;;;;;16.95;6.60;;;;;;;31.70;72.23;100723.16;5088826;27;70198;-36
2022/11/15 10:46:56;;;;;;;12.93;6.38;;;;;;;31.74;71.70;100723.53;5086347;27;66048;-34
2022/11/15 10:49:30;;;;;;;16.83;6.05;;;;;;;31.64;71.70;100723.25;5085082;27;70128;-34
2022/11/15 10:52:15;;;;;;;18.80;7.65;;;;;;;31.46;72.25;100700.56;5086282;27;66458;-35
2022/11/15 10:55:12;;;;;;;16.00;6.93;;;;;;;31.70;71.96;100730.47;5084759;27;69905;-35
2022/11/15 10:57:55;;;;;;;15.15;7.15;;;;;;;31.81;71.28;100740.53;5082827;27;66637;-36
2022/11/15 11:00:46;;;;;;;15.32;6.95;;;;;;;31.78;71.60;100730.97;5086261;27;69979;-34
2022/11/15 11:03:29;;;;;;;13.48;5.95;;;;;;;31.87;71.40;100726.03;5089134;27;65062;-36
2022/11/15 11:06:15;;;;;;;11.45;6.00;;;;;;;31.47;70.68;100658.00;5083308;27;69397;-33
2022/11/15 11:09:04;;;;;;;11.60;6.28;;;;;;;31.49;70.60;100667.56;5092950;27;66717;-36
2022/11/15 11:11:49;;;;;;;8.43;6.20;;;;;;;31.60;70.48;100680.34;5084575;27;69751;-36
2022/11/15 11:14:30;;;;;;;10.38;6.53;;;;;;;31.54;70.09;100659.56;5065127;27;66055;-36
2022/11/15 11:17:11;;;;;;;13.17;6.40;;;;;;;31.98;70.16;100728.03;5054969;27;70055;-34
2022/11/15 11:20:09;;;;;;;9.43;6.75;;;;;;;31.97;69.82;100729.06;5085235;27;64564;-36
2022/11/15 11:22:59;;;;;;;13.82;6.32;;;;;;;32.01;69.81;100730.28;5093312;27;70782;-36
2022/11/15 11:25:33;;;;;;;9.02;6.03;;;;;;;32.05;69.61;100736.06;5099664;27;66150;-36
2022/11/15 11:28:27;;;;;;;7.43;5.88;;;;;;;32.05;69.60;100739.59;5086753;27;69884;-35
2022/11/15 11:31:14;;;;;;;15.45;6.40;;;;;;;31.96;69.55;100743.69;5084275;27;66114;-37
2022/11/15 11:33:55;;;;;;;14.38;7.13;;;;;;;31.94;69.16;100734.97;5088113;27;69680;-37
2022/11/15 11:37:04;;;;;;;14.73;7.13;;;;;;;31.85;69.52;100730.91;5082770;27;66203;-35
2022/11/15 11:39:59;;;;;;;11.82;5.68;;;;;;;32.02;68.89;100752.81;5087535;27;69765;-34
2022/11/15 11:42:49;;;;;;;12.20;5.50;;;;;;;31.99;68.95;100753.28;5087690;27;66304;-34
2022/11/15 11:45:50;;;;;;;8.73;6.60;;;;;;;31.94;68.96;100762.09;5087538;27;69815;-35
2022/11/15 11:48:45;;;;;;;8.07;5.85;;;;;;;31.54;68.86;100702.94;5083036;27;66577;-37
2022/11/15 11:51:53;;;;;;;8.07;6.47;;;;;;;31.78;68.74;100763.50;5082631;27;69970;-34
2022/11/15 11:54:48;;;;;;;13.23;6.35;;;;;;;31.95;68.53;100785.44;5091422;27;65927;-35
2022/11/15 11:57:55;;;;;;;9.73;6.10;;;;;;;31.40;68.30;100706.91;5095011;27;70758;-36
2022/11/15 12:00:28;;;;;;;15.10;5.97;;;;;;;32.00;68.00;100792.91;5082212;27;66186;-34
2022/11/15 12:03:00;;;;;;;9.23;6.15;;;;;;;32.02;67.94;100812.50;5070381;27;69673;-36
2022/11/15 12:05:56;;;;;;;7.13;5.65;;;;;;;32.03;67.96;100817.66;5070318;27;65248;-35
2022/11/15 12:08:57;;;;;;;11.82;5.82;;;;;;;31.92;68.40;100823.88;5070706;27;69587;-36
2022/11/15 12:11:35;;;;;;;9.48;5.53;;;;;;;32.03;67.80;100831.25;5085004;27;66450;-37
2022/11/15 12:14:17;;;;;;;9.07;5.90;;;;;;;31.54;67.50;100759.88;5087204;27;69987;-34
2022/11/15 12:16:47;;;;;;;;;;;;;;;31.67;68.84;100839.41;5082314;27;66513;-34
2022/11/15 12:19:18;;;;;;;9.32;6.05;;;;;;;31.80;68.20;100812.94;5086690;27;70321;-35
2022/11/15 12:21:55;;;;;;;8.73;5.83;;;;;;;31.94;68.07;100840.75;5086721;27;66411;-36
2022/11/15 12:24:35;;;;;;;8.60;5.53;;;;;;;31.98;68.07;100852.84;5092301;27;70197;-34
2022/11/15 12:27:20;;;;;;;9.50;5.93;;;;;;;31.50;67.66;100779.53;5086472;27;66345;-37
2022/11/15 12:30:00;;;;;;;10.00;6.05;;;;;;;32.00;67.87;100863.44;5081301;27;69720;-38
2022/11/15 12:32:40;;;;;;;6.53;5.88;;;;;;;31.52;67.92;100791.00;5084745;27;67157;-35
2022/11/15 12:35:42;;;;;;;11.82;5.97;;;;;;;31.82;68.27;100872.41;5083348;27;70184;-38
2022/11/15 12:38:52;;;;;;;16.27;6.93;;;;;;;31.78;68.99;100872.00;5071267;27;65729;-36
2022/11/15 12:41:27;;;;;;;54.13;7.50;;;;;;;31.65;69.25;100857.78;5089490;27;70814;-39
2022/11/15 12:43:59;;;;;;;43.47;8.23;;;;;;;31.62;68.79;100878.03;5086225;27;65959;-35
2022/11/15 12:46:31;;;;;;;34.05;7.00;;;;;;;31.45;68.37;100883.22;5083863;27;70789;-35
2022/11/15 12:49:23;;;;;;;30.65;7.32;;;;;;;31.18;68.07;100879.94;5082908;27;65922;-34
2022/11/15 12:52:06;;;;;;;15.85;5.20;;;;;;;31.08;67.71;100872.28;5082454;27;69317;-36
2022/11/15 12:54:40;;;;;;;13.32;5.18;;;;;;;31.04;67.64;100875.69;5082433;27;66628;-37
2022/11/15 12:57:15;;;;;;;12.30;5.32;;;;;;;30.97;66.57;100877.59;5081101;27;69888;-38
2022/11/15 13:00:27;;;;;;;9.32;4.88;;;;;;;30.86;65.82;100874.56;5086652;27;65483;-38
2022/11/15 13:03:25;;;;;;;7.28;4.95;;;;;;;30.85;65.02;100882.91;5069330;27;70436;-38
2022/11/15 13:05:59;;;;;;;9.52;4.10;;;;;;;30.91;63.99;100882.03;5088554;27;65215;-36
2022/11/15 13:08:43;;;;;;;13.15;4.85;;;;;;;30.85;64.11;100872.91;5078468;27;69347;-35
2022/11/15 13:11:48;;;;;;;20.77;4.60;;;;;;;30.75;63.14;100877.13;5088708;27;66563;-37
2022/11/15 13:14:43;;;;;;;12.25;4.72;;;;;;;30.67;63.26;100875.50;5082237;27;69843;-35
2022/11/15 13:17:29;;;;;;;16.52;5.10;;;;;;;30.71;63.63;100877.56;5079993;27;66018;-39